Wheeling, Missouri
Current Conditions -  °F | °C
As of 2:55 AM on Wednesday 28 Jan 2015 (Local Time) from KIRK Reporting Station
Haze Haze  
Wind Chill: 18°   Ceiling: Unl
Heat Index: 28°   Visibility: 4mi
Dew Point: 27°   Wind: 12mph
Humidity: 96%   Direction: 130°SE
Pressure: 30.13"   Gusts: NA
Location:  39.79°N, 93.39°W
Report Text: KIRK 280855Z AUTO 13010KT 4SM BR FEW006 M02/M03 A3013 RMK AO2 SLP215 T10221028 56005
Loading
Personal Weather Stations






























Interactive Weather Map New forecast layout! Learn more

10-Day Weather Forecast

Advertisements
Track Severe Weather on mobile